Terminal Aerodrome Forecast
Issued by NWS

Home | Current Version | Previous Version | Graphics & Text | Print | Product List | Glossary On
Versions: 1 2 3 4 5 6 7 8 9 10 11 12 13 14 15 16 17 18
000
FTUS43 KMPX 250500
TAFRNH
TAF
KRNH 250539Z 2506/2606 24008KT P6SM OVC010
     FM250800 22008KT P6SM OVC008
     FM251400 20006KT P6SM OVC015
     FM251800 19004KT P6SM SCT015 BKN030
     FM252300 VRB02KT P6SM BKN015 OVC040=

USA.gov is the U.S. government's official web portal to all federal, state and local government web resources and services.